Terminal Aerodrome Forecast
Issued by NWS

Home | Current Version | Previous Version | Graphics & Text | Print | Product List | Glossary On
Versions: 1 2 3 4 5 6 7 8 9 10 11 12 13 14 15 16 17 18
000
FTUS43 KLSX 221700
TAFSUS
TAF
KSUS 221720Z 2218/2318 22006KT P6SM BKN250
     FM230600 VRB10G25KT 5SM TSRA BR BKN040CB
     FM230800 30005KT P6SM SCT040 BKN080
     FM231000 33005KT P6SM BKN030
     FM231400 02010KT P6SM SCT035=

USA.gov is the U.S. government's official web portal to all federal, state and local government web resources and services.